Fireboat Challenger — WR8183 — position and weather

sailwx.info

Track history (hours):
 
Tides and Currents Weather Stations Pressure Air Temp Water Temp Dewpoint Dewpoint Depression Visibility Wind Speed Wind Dir Waves Ship Positions

Fireboat Challenger

Owner: Long Beach, City of, LONG BEACH, CA. More information available from US FCC via Universal Licensing System and Coast Guard Vessel Documentation Center.

Last reported at 2014-Oct-30 23:32 UTC. Time now 2014-Oct-31 12:17 UTC.
Position N 33°45' W 118°13'.

Length 29 m.

MMSI: 367067790.

Date/timePositionNaut miles runAvg speedWind from/ knotsBaromVisibWave heightAir tempDewpointWater temp
2014-Oct-30 23:32N 33°45' W 118°13'0 0.0
2014-Oct-30 21:33N 33°45' W 118°13'0 0.0
2014-Oct-30 20:33N 33°45' W 118°13'0 0.0
2014-Oct-30 19:33N 33°45' W 118°13'0 0.0
2014-Oct-30 18:33N 33°45' W 118°13'2 1.6
2014-Oct-30 17:33N 33°43' W 118°13'1 1.1
2014-Oct-30 16:33N 33°43' W 118°12'2 2.1
2014-Oct-30 15:33N 33°45' W 118°13'0 0.0
2014-Oct-30 01:22N 33°45' W 118°13'0 0.0
2014-Oct-30 00:32N 33°45' W 118°13'0 0.0
2014-Oct-29 23:33N 33°45' W 118°13'0 0.0
2014-Oct-29 22:27N 33°45' W 118°13'0 0.0
2014-Oct-29 20:30N 33°45' W 118°13'0 0.0
2014-Oct-29 18:32N 33°45' W 118°13'0 0.1
2014-Oct-29 17:33N 33°45' W 118°13'2 1.9
2014-Oct-29 16:32N 33°46' W 118°11'2 0.1
2014-Oct-28 23:31N 33°45' W 118°13'0 0.0
2014-Oct-28 22:33N 33°45' W 118°13'0 0.0
2014-Oct-28 21:32N 33°45' W 118°13'0 0.0
2014-Oct-28 20:33N 33°45' W 118°13'0 0.0
2014-Oct-28 19:30N 33°45' W 118°13'0 0.0
2014-Oct-28 18:24N 33°45' W 118°13'0 0.0
2014-Oct-28 17:25N 33°45' W 118°13'0 0.0
2014-Oct-28 00:10N 33°45' W 118°13'0 0.0
2014-Oct-27 23:34N 33°45' W 118°13'0 0.0
2014-Oct-27 22:33N 33°45' W 118°13'0 0.0
2014-Oct-27 21:33N 33°45' W 118°13'0 0.0
2014-Oct-27 20:33N 33°45' W 118°13'0 0.0
2014-Oct-27 19:33N 33°45' W 118°13'0 0.0
2014-Oct-27 18:33N 33°45' W 118°13'0 0.0
2014-Oct-27 17:33N 33°45' W 118°13'0 0.0
2014-Oct-27 02:20N 33°45' W 118°13'0 0.0
2014-Oct-27 01:33N 33°45' W 118°13'0 0.0
2014-Oct-27 00:33N 33°45' W 118°13'0 0.0
2014-Oct-26 23:33N 33°45' W 118°13'0 0.0
2014-Oct-26 22:33N 33°45' W 118°13'0 0.0
2014-Oct-26 21:26N 33°45' W 118°13'0 0.0
2014-Oct-26 20:32N 33°45' W 118°13'0 0.0
2014-Oct-26 19:30N 33°45' W 118°13'0 0.0
2014-Oct-26 16:24N 33°45' W 118°13'0 0.0
2014-Oct-26 01:32N 33°45' W 118°13'0 0.0
2014-Oct-26 00:33N 33°45' W 118°13'0 0.0
2014-Oct-25 23:33N 33°45' W 118°13'0 0.0
2014-Oct-25 22:33N 33°45' W 118°13'0 0.0
2014-Oct-25 21:33N 33°45' W 118°13'0 0.0
2014-Oct-25 20:20N 33°45' W 118°13'0 0.0
2014-Oct-25 19:33N 33°45' W 118°13'0 0.0
2014-Oct-25 18:33N 33°45' W 118°13'0 0.0
2014-Oct-25 17:15N 33°45' W 118°13'0 0.0
2014-Oct-25 16:32N 33°45' W 118°13'0 0.0
2014-Oct-25 15:33N 33°45' W 118°13'0 0.0
2014-Oct-25 14:33N 33°45' W 118°13'0 0.0
2014-Oct-25 13:33N 33°45' W 118°13'0 0.0
2014-Oct-25 12:33N 33°45' W 118°13'0 0.0
2014-Oct-25 11:33N 33°45' W 118°13'0 0.0
2014-Oct-25 10:33N 33°45' W 118°13'0 0.0
2014-Oct-25 09:33N 33°45' W 118°13'0 0.0
2014-Oct-25 08:33N 33°45' W 118°13'0 0.0
2014-Oct-25 07:34N 33°45' W 118°13'0 0.0
2014-Oct-25 06:34N 33°45' W 118°13'0 0.0
2014-Oct-25 05:34N 33°45' W 118°13'0 0.0
2014-Oct-25 04:34N 33°45' W 118°13'0 0.0
2014-Oct-25 03:34N 33°45' W 118°13'0 0.0
2014-Oct-25 02:33N 33°45' W 118°13'0 0.0
2014-Oct-25 01:34N 33°45' W 118°13'0 0.0
2014-Oct-25 00:33N 33°45' W 118°13'0 0.0
2014-Oct-24 23:34N 33°45' W 118°13'0 0.0
2014-Oct-24 22:34N 33°45' W 118°13'0 0.0
2014-Oct-24 21:33N 33°45' W 118°13'0 0.0
2014-Oct-24 20:33N 33°45' W 118°13'4 3.5
2014-Oct-24 19:33N 33°45' W 118°09'4 3.5
2014-Oct-24 18:33N 33°45' W 118°13'0 0.0
2014-Oct-24 00:14N 33°45' W 118°13'0 0.0
2014-Oct-23 23:33N 33°45' W 118°13'0 0.0
2014-Oct-23 22:33N 33°45' W 118°13'0 0.0
2014-Oct-23 21:33N 33°45' W 118°13'0 0.0
2014-Oct-23 20:33N 33°45' W 118°13'0 0.0
2014-Oct-23 19:33N 33°45' W 118°13'3 3.0
2014-Oct-23 18:33N 33°44' W 118°16'0 0.0
2014-Oct-23 17:33N 33°44' W 118°16'2 1.7
2014-Oct-23 16:25N 33°43' W 118°14'2 0.3
2014-Oct-23 10:34N 33°44' W 118°12'1 1.0
2014-Oct-23 09:33N 33°44' W 118°11'2 1.8
2014-Oct-23 08:33N 33°45' W 118°13'0 0.0
2014-Oct-22 20:33N 33°45' W 118°13'0 0.0
2014-Oct-22 19:33N 33°45' W 118°13'0 0.0
2014-Oct-22 18:32N 33°45' W 118°13'0 0.0
2014-Oct-21 23:33N 33°45' W 118°13'0 0.0
2014-Oct-21 22:28N 33°45' W 118°13'0 0.0
2014-Oct-21 21:33N 33°45' W 118°13'0 0.0
2014-Oct-21 20:31N 33°45' W 118°13'0 0.0
2014-Oct-21 19:33N 33°45' W 118°13'0 0.0
2014-Oct-21 18:31N 33°45' W 118°13'0 0.0
2014-Oct-21 17:32N 33°45' W 118°13'0 0.0
2014-Oct-21 16:33N 33°45' W 118°13'0 0.0
2014-Oct-21 13:33N 33°45' W 118°13'0 0.0
2014-Oct-21 12:32N 33°45' W 118°13'0 0.0
2014-Oct-21 11:33N 33°45' W 118°13'0 0.0
2014-Oct-21 10:32N 33°45' W 118°13'0 0.0
2014-Oct-21 08:11N 33°45' W 118°13'0 0.0
2014-Oct-21 07:16N 33°45' W 118°13'0 0.0
2014-Oct-21 06:30N 33°45' W 118°13'0 0.0
2014-Oct-21 05:30N 33°45' W 118°13'0 0.0
2014-Oct-21 04:29N 33°45' W 118°13'0 0.0
2014-Oct-21 03:31N 33°45' W 118°13'0 0.0
2014-Oct-21 02:33N 33°45' W 118°13'0 0.0
2014-Oct-21 01:33N 33°45' W 118°13'0 0.0
2014-Oct-21 00:33N 33°45' W 118°13'  
Track history (hours):
 
Tides and Currents Weather Stations Pressure Air Temp Water Temp Dewpoint Dewpoint Depression Visibility Wind Speed Wind Dir Waves Ship Positions

Fireboat Challenger

Owner: Long Beach, City of, LONG BEACH, CA. More information available from US FCC via Universal Licensing System and Coast Guard Vessel Documentation Center.

Last reported at 2014-Oct-30 23:32 UTC. Time now 2014-Oct-31 12:17 UTC.
Position N 33°45' W 118°13'.

Length 29 m.

MMSI: 367067790.

Date/timePositionNaut miles runAvg speedWind from/ knotsBaromVisibWave heightAir tempDewpointWater temp
2014-Oct-30 23:32N 33°45' W 118°13'0 0.0
2014-Oct-30 21:33N 33°45' W 118°13'0 0.0
2014-Oct-30 20:33N 33°45' W 118°13'0 0.0
2014-Oct-30 19:33N 33°45' W 118°13'0 0.0
2014-Oct-30 18:33N 33°45' W 118°13'2 1.6
2014-Oct-30 17:33N 33°43' W 118°13'1 1.1
2014-Oct-30 16:33N 33°43' W 118°12'2 2.1
2014-Oct-30 15:33N 33°45' W 118°13'0 0.0
2014-Oct-30 01:22N 33°45' W 118°13'0 0.0
2014-Oct-30 00:32N 33°45' W 118°13'0 0.0
2014-Oct-29 23:33N 33°45' W 118°13'0 0.0
2014-Oct-29 22:27N 33°45' W 118°13'0 0.0
2014-Oct-29 20:30N 33°45' W 118°13'0 0.0
2014-Oct-29 18:32N 33°45' W 118°13'0 0.1
2014-Oct-29 17:33N 33°45' W 118°13'2 1.9
2014-Oct-29 16:32N 33°46' W 118°11'2 0.1
2014-Oct-28 23:31N 33°45' W 118°13'0 0.0
2014-Oct-28 22:33N 33°45' W 118°13'0 0.0
2014-Oct-28 21:32N 33°45' W 118°13'0 0.0
2014-Oct-28 20:33N 33°45' W 118°13'0 0.0
2014-Oct-28 19:30N 33°45' W 118°13'0 0.0
2014-Oct-28 18:24N 33°45' W 118°13'0 0.0
2014-Oct-28 17:25N 33°45' W 118°13'0 0.0
2014-Oct-28 00:10N 33°45' W 118°13'0 0.0
2014-Oct-27 23:34N 33°45' W 118°13'0 0.0
2014-Oct-27 22:33N 33°45' W 118°13'0 0.0
2014-Oct-27 21:33N 33°45' W 118°13'0 0.0
2014-Oct-27 20:33N 33°45' W 118°13'0 0.0
2014-Oct-27 19:33N 33°45' W 118°13'0 0.0
2014-Oct-27 18:33N 33°45' W 118°13'0 0.0
2014-Oct-27 17:33N 33°45' W 118°13'0 0.0
2014-Oct-27 02:20N 33°45' W 118°13'0 0.0
2014-Oct-27 01:33N 33°45' W 118°13'0 0.0
2014-Oct-27 00:33N 33°45' W 118°13'0 0.0
2014-Oct-26 23:33N 33°45' W 118°13'0 0.0
2014-Oct-26 22:33N 33°45' W 118°13'0 0.0
2014-Oct-26 21:26N 33°45' W 118°13'0 0.0
2014-Oct-26 20:32N 33°45' W 118°13'0 0.0
2014-Oct-26 19:30N 33°45' W 118°13'0 0.0
2014-Oct-26 16:24N 33°45' W 118°13'0 0.0
2014-Oct-26 01:32N 33°45' W 118°13'0 0.0
2014-Oct-26 00:33N 33°45' W 118°13'0 0.0
2014-Oct-25 23:33N 33°45' W 118°13'0 0.0
2014-Oct-25 22:33N 33°45' W 118°13'0 0.0
2014-Oct-25 21:33N 33°45' W 118°13'0 0.0
2014-Oct-25 20:20N 33°45' W 118°13'0 0.0
2014-Oct-25 19:33N 33°45' W 118°13'0 0.0
2014-Oct-25 18:33N 33°45' W 118°13'0 0.0
2014-Oct-25 17:15N 33°45' W 118°13'0 0.0
2014-Oct-25 16:32N 33°45' W 118°13'0 0.0
2014-Oct-25 15:33N 33°45' W 118°13'0 0.0
2014-Oct-25 14:33N 33°45' W 118°13'0 0.0
2014-Oct-25 13:33N 33°45' W 118°13'0 0.0
2014-Oct-25 12:33N 33°45' W 118°13'0 0.0
2014-Oct-25 11:33N 33°45' W 118°13'0 0.0
2014-Oct-25 10:33N 33°45' W 118°13'0 0.0
2014-Oct-25 09:33N 33°45' W 118°13'0 0.0
2014-Oct-25 08:33N 33°45' W 118°13'0 0.0
2014-Oct-25 07:34N 33°45' W 118°13'0 0.0
2014-Oct-25 06:34N 33°45' W 118°13'0 0.0
2014-Oct-25 05:34N 33°45' W 118°13'0 0.0
2014-Oct-25 04:34N 33°45' W 118°13'0 0.0
2014-Oct-25 03:34N 33°45' W 118°13'0 0.0
2014-Oct-25 02:33N 33°45' W 118°13'0 0.0
2014-Oct-25 01:34N 33°45' W 118°13'0 0.0
2014-Oct-25 00:33N 33°45' W 118°13'0 0.0
2014-Oct-24 23:34N 33°45' W 118°13'0 0.0
2014-Oct-24 22:34N 33°45' W 118°13'0 0.0
2014-Oct-24 21:33N 33°45' W 118°13'0 0.0
2014-Oct-24 20:33N 33°45' W 118°13'4 3.5
2014-Oct-24 19:33N 33°45' W 118°09'4 3.5
2014-Oct-24 18:33N 33°45' W 118°13'0 0.0
2014-Oct-24 00:14N 33°45' W 118°13'0 0.0
2014-Oct-23 23:33N 33°45' W 118°13'0 0.0
2014-Oct-23 22:33N 33°45' W 118°13'0 0.0
2014-Oct-23 21:33N 33°45' W 118°13'0 0.0
2014-Oct-23 20:33N 33°45' W 118°13'0 0.0
2014-Oct-23 19:33N 33°45' W 118°13'3 3.0
2014-Oct-23 18:33N 33°44' W 118°16'0 0.0
2014-Oct-23 17:33N 33°44' W 118°16'2 1.7
2014-Oct-23 16:25N 33°43' W 118°14'2 0.3
2014-Oct-23 10:34N 33°44' W 118°12'1 1.0
2014-Oct-23 09:33N 33°44' W 118°11'2 1.8
2014-Oct-23 08:33N 33°45' W 118°13'0 0.0
2014-Oct-22 20:33N 33°45' W 118°13'0 0.0
2014-Oct-22 19:33N 33°45' W 118°13'0 0.0
2014-Oct-22 18:32N 33°45' W 118°13'0 0.0
2014-Oct-21 23:33N 33°45' W 118°13'0 0.0
2014-Oct-21 22:28N 33°45' W 118°13'0 0.0
2014-Oct-21 21:33N 33°45' W 118°13'0 0.0
2014-Oct-21 20:31N 33°45' W 118°13'0 0.0
2014-Oct-21 19:33N 33°45' W 118°13'0 0.0
2014-Oct-21 18:31N 33°45' W 118°13'0 0.0
2014-Oct-21 17:32N 33°45' W 118°13'0 0.0
2014-Oct-21 16:33N 33°45' W 118°13'0 0.0
2014-Oct-21 13:33N 33°45' W 118°13'0 0.0
2014-Oct-21 12:32N 33°45' W 118°13'0 0.0
2014-Oct-21 11:33N 33°45' W 118°13'0 0.0
2014-Oct-21 10:32N 33°45' W 118°13'0 0.0
2014-Oct-21 08:11N 33°45' W 118°13'0 0.0
2014-Oct-21 07:16N 33°45' W 118°13'0 0.0
2014-Oct-21 06:30N 33°45' W 118°13'0 0.0
2014-Oct-21 05:30N 33°45' W 118°13'0 0.0
2014-Oct-21 04:29N 33°45' W 118°13'0 0.0
2014-Oct-21 03:31N 33°45' W 118°13'0 0.0
2014-Oct-21 02:33N 33°45' W 118°13'0 0.0
2014-Oct-21 01:33N 33°45' W 118°13'0 0.0
2014-Oct-21 00:33N 33°45' W 118°13'  

Dump ship's entire track history